createdAt,value
2022-09-07T00:00:08.685Z,20.5784
2022-09-07T00:01:08.680Z,20.5763
2022-09-07T00:02:11.490Z,20.565
2022-09-07T00:03:12.320Z,20.564
2022-09-07T00:04:07.905Z,20.554
2022-09-07T00:05:09.376Z,20.535
2022-09-07T00:06:08.642Z,20.51
2022-09-07T00:07:08.839Z,20.475
2022-09-07T00:08:09.123Z,20.44
2022-09-07T00:09:07.899Z,20.42
2022-09-07T00:10:12.298Z,20.373
2022-09-07T00:11:08.849Z,20.35
2022-09-07T00:12:09.014Z,20.327
2022-09-07T00:13:09.113Z,20.285
2022-09-07T00:14:08.788Z,20.255
2022-09-07T00:15:09.518Z,20.21
2022-09-07T00:16:08.236Z,20.1891
2022-09-07T00:17:12.254Z,20.1783
2022-09-07T00:18:07.936Z,20.149
2022-09-07T00:19:08.037Z,20.1316
2022-09-07T00:20:08.451Z,20.138
2022-09-07T00:21:09.428Z,20.1316
2022-09-07T00:22:08.812Z,20.11
2022-09-07T00:23:11.245Z,20.121
2022-09-07T00:24:08.057Z,20.11
2022-09-07T00:25:08.421Z,20.1316
2022-09-07T00:26:09.353Z,20.16
2022-09-07T00:27:08.483Z,20.166
2022-09-07T00:28:08.531Z,20.1891
2022-09-07T00:29:08.389Z,20.149
2022-09-07T00:30:08.282Z,20.075
2022-09-07T00:31:09.949Z,20.045
2022-09-07T00:32:08.895Z,20.045
2022-09-07T00:33:08.090Z,20.06
2022-09-07T00:34:08.583Z,20.055
2022-09-07T00:35:09.208Z,20.04
2022-09-07T00:36:10.935Z,20.01
2022-09-07T00:37:09.026Z,20
2022-09-07T00:38:09.395Z,19.975
2022-09-07T00:39:09.523Z,19.955
2022-09-07T00:40:08.806Z,19.94
2022-09-07T00:41:08.602Z,19.93
2022-09-07T00:42:09.408Z,19.915
2022-09-07T00:43:09.063Z,19.92
2022-09-07T00:44:07.543Z,19.91
2022-09-07T00:45:09.332Z,19.935
2022-09-07T00:46:08.777Z,19.905
2022-09-07T00:47:11.939Z,19.895
2022-09-07T00:48:11.215Z,19.8741
2022-09-07T00:49:07.447Z,19.91
2022-09-07T00:50:08.869Z,19.885
2022-09-07T00:51:11.278Z,19.895
2022-09-07T00:52:08.356Z,19.89
2022-09-07T00:53:09.231Z,19.885
2022-09-07T00:54:07.902Z,19.885
2022-09-07T00:55:08.923Z,19.91
2022-09-07T00:56:08.803Z,19.935
2022-09-07T00:57:08.736Z,19.965
2022-09-07T00:58:08.597Z,19.98
2022-09-07T00:59:08.772Z,19.985
2022-09-07T01:00:08.503Z,19.995
2022-09-07T01:01:11.445Z,20.03
2022-09-07T01:02:08.169Z,20.05
2022-09-07T01:03:08.400Z,20.04
2022-09-07T01:04:07.289Z,20.06
2022-09-07T01:05:09.579Z,20.07
2022-09-07T01:06:08.324Z,20.095
2022-09-07T01:07:08.676Z,20.126
2022-09-07T01:08:11.493Z,20.1
2022-09-07T01:09:09.838Z,20.06
2022-09-07T01:10:11.311Z,20.05
2022-09-07T01:11:07.924Z,20.015
2022-09-07T01:12:08.977Z,19.995
2022-09-07T01:13:08.536Z,19.995
2022-09-07T01:14:09.554Z,19.975
2022-09-07T01:15:10.397Z,19.97
2022-09-07T01:16:09.233Z,19.985
2022-09-07T01:17:11.487Z,19.975
2022-09-07T01:18:08.751Z,19.96
2022-09-07T01:19:07.927Z,19.92
2022-09-07T01:20:08.756Z,19.9
2022-09-07T01:21:09.695Z,19.89
2022-09-07T01:22:08.844Z,19.89
2022-09-07T01:23:09.911Z,19.915
2022-09-07T01:24:08.139Z,19.915
2022-09-07T01:25:09.283Z,19.935
2022-09-07T01:26:08.896Z,19.94
2022-09-07T01:27:08.988Z,19.929
2022-09-07T01:28:09.152Z,19.912
2022-09-07T01:29:08.274Z,19.92
2022-09-07T01:30:11.719Z,19.906
2022-09-07T01:31:12.263Z,19.873
2022-09-07T01:32:08.877Z,19.867
2022-09-07T01:33:09.160Z,19.866
2022-09-07T01:34:07.866Z,19.833
2022-09-07T01:35:09.062Z,19.8216
2022-09-07T01:36:08.760Z,19.8216
2022-09-07T01:37:08.107Z,19.833
2022-09-07T01:38:09.415Z,19.856
2022-09-07T01:39:10.594Z,19.884
2022-09-07T01:40:08.793Z,19.895
2022-09-07T01:41:08.522Z,19.895
2022-09-07T01:42:09.213Z,19.89
2022-09-07T01:43:08.575Z,19.862
2022-09-07T01:44:09.921Z,19.862
2022-09-07T01:45:09.171Z,19.862
2022-09-07T01:46:08.578Z,19.816
2022-09-07T01:47:09.548Z,19.78
2022-09-07T01:48:08.713Z,19.79
2022-09-07T01:49:08.121Z,19.75
2022-09-07T01:50:08.889Z,19.73
2022-09-07T01:51:08.593Z,19.71
2022-09-07T01:52:08.344Z,19.695
2022-09-07T01:53:09.120Z,19.6783
2022-09-07T01:54:08.048Z,19.671
2022-09-07T01:55:08.824Z,19.637
2022-09-07T01:56:08.866Z,19.615
2022-09-07T01:57:08.446Z,19.575
2022-09-07T01:58:08.725Z,19.54
2022-09-07T01:59:10.587Z,19.535
2022-09-07T02:00:08.244Z,19.53
2022-09-07T02:01:08.640Z,19.525
2022-09-07T02:02:08.475Z,19.54
2022-09-07T02:03:11.136Z,19.515
2022-09-07T02:04:08.239Z,19.51
2022-09-07T02:05:09.807Z,19.52
2022-09-07T02:06:08.677Z,19.525
2022-09-07T02:07:09.035Z,19.51
2022-09-07T02:08:08.942Z,19.505
2022-09-07T02:09:07.900Z,19.485
2022-09-07T02:10:08.469Z,19.5
2022-09-07T02:11:09.975Z,19.505
2022-09-07T02:12:08.678Z,19.5
2022-09-07T02:13:12.445Z,19.47
2022-09-07T02:14:07.628Z,19.44
2022-09-07T02:15:09.337Z,19.425
2022-09-07T02:16:08.461Z,19.43
2022-09-07T02:17:09.425Z,19.41
2022-09-07T02:18:08.370Z,19.39
2022-09-07T02:19:07.566Z,19.3741
2022-09-07T02:20:09.660Z,19.3741
2022-09-07T02:21:08.806Z,19.356
2022-09-07T02:22:08.419Z,19.3158
2022-09-07T02:23:09.346Z,19.316
2022-09-07T02:24:09.257Z,19.3158
2022-09-07T02:25:08.870Z,19.3158
2022-09-07T02:26:08.726Z,19.305
2022-09-07T02:27:08.183Z,19.27
2022-09-07T02:28:07.836Z,19.24
2022-09-07T02:29:09.987Z,19.235
2022-09-07T02:30:08.956Z,19.205
2022-09-07T02:31:09.029Z,19.21
2022-09-07T02:32:08.649Z,19.171
2022-09-07T02:33:09.253Z,19.166
2022-09-07T02:34:08.355Z,19.143
2022-09-07T02:35:12.501Z,19.115
2022-09-07T02:36:11.803Z,19.1208
2022-09-07T02:37:09.385Z,19.105
2022-09-07T02:38:08.225Z,19.1
2022-09-07T02:39:09.937Z,19.11
2022-09-07T02:40:11.389Z,19.11
2022-09-07T02:41:11.740Z,19.09
2022-09-07T02:42:09.266Z,19.105
2022-09-07T02:43:09.120Z,19.11
2022-09-07T02:44:08.415Z,19.1316
2022-09-07T02:45:08.110Z,19.121
2022-09-07T02:46:08.908Z,19.132
2022-09-07T02:47:11.119Z,19.115
2022-09-07T02:48:09.222Z,19.11
2022-09-07T02:49:10.025Z,19.09
2022-09-07T02:50:08.412Z,19.08
2022-09-07T02:51:12.002Z,19.085
2022-09-07T02:52:12.320Z,19.07
2022-09-07T02:53:08.500Z,19.04
2022-09-07T02:54:08.397Z,19.04
2022-09-07T02:55:09.092Z,19.02
2022-09-07T02:56:08.590Z,19.0381
2022-09-07T02:57:12.043Z,19.0461
2022-09-07T02:58:08.678Z,19.0272
2022-09-07T02:59:08.163Z,19.0415
2022-09-07T03:00:08.175Z,19.0381
2022-09-07T03:01:12.500Z,19.0553
2022-09-07T03:02:09.109Z,19.05
2022-09-07T03:03:09.135Z,19.06
2022-09-07T03:04:08.245Z,19.075
2022-09-07T03:05:09.247Z,19.065
2022-09-07T03:06:08.607Z,19.0763
2022-09-07T03:07:08.026Z,19.11
2022-09-07T03:08:09.013Z,19.11
2022-09-07T03:09:08.288Z,19.137
2022-09-07T03:10:10.992Z,19.155
2022-09-07T03:11:11.496Z,19.172
2022-09-07T03:12:09.013Z,19.166
2022-09-07T03:13:09.207Z,19.16
2022-09-07T03:14:08.914Z,19.172
2022-09-07T03:15:09.137Z,19.19
2022-09-07T03:16:08.489Z,19.2
2022-09-07T03:17:09.685Z,19.215
2022-09-07T03:18:08.773Z,19.21
2022-09-07T03:19:08.878Z,19.22
2022-09-07T03:20:11.715Z,19.22
2022-09-07T03:21:09.440Z,19.235
2022-09-07T03:22:12.035Z,19.25
2022-09-07T03:23:08.831Z,19.235
2022-09-07T03:24:07.859Z,19.245
2022-09-07T03:25:09.467Z,19.23
2022-09-07T03:26:08.708Z,19.245
2022-09-07T03:27:09.240Z,19.25
2022-09-07T03:28:09.407Z,19.275
2022-09-07T03:29:08.346Z,19.285
2022-09-07T03:30:08.612Z,19.295
2022-09-07T03:31:09.507Z,19.311
2022-09-07T03:32:08.320Z,19.339
2022-09-07T03:33:08.965Z,19.356
2022-09-07T03:34:10.133Z,19.373
2022-09-07T03:35:09.511Z,19.389
2022-09-07T03:36:08.892Z,19.405
2022-09-07T03:37:08.948Z,19.425
2022-09-07T03:38:08.748Z,19.42
2022-09-07T03:39:08.192Z,19.425
2022-09-07T03:40:08.609Z,19.415
2022-09-07T03:41:11.295Z,19.4
2022-09-07T03:42:09.764Z,19.405
2022-09-07T03:43:08.135Z,19.384
2022-09-07T03:44:08.383Z,19.38
2022-09-07T03:45:09.264Z,19.333
2022-09-07T03:46:08.714Z,19.3216
2022-09-07T03:47:09.187Z,19.31
2022-09-07T03:48:08.816Z,19.3158
2022-09-07T03:49:07.936Z,19.316
2022-09-07T03:50:09.491Z,19.311
2022-09-07T03:51:08.909Z,19.295
2022-09-07T03:52:08.422Z,19.305
2022-09-07T03:53:09.534Z,19.3
2022-09-07T03:54:08.081Z,19.3158
2022-09-07T03:55:08.432Z,19.31
2022-09-07T03:56:11.369Z,19.327
2022-09-07T03:57:09.466Z,19.327
2022-09-07T03:58:08.666Z,19.333
2022-09-07T03:59:07.886Z,19.333
2022-09-07T04:00:11.320Z,19.362
2022-09-07T04:01:08.595Z,19.35
2022-09-07T04:02:09.338Z,19.362
2022-09-07T04:03:08.739Z,19.356
2022-09-07T04:04:07.966Z,19.345
2022-09-07T04:05:08.609Z,19.3216
2022-09-07T04:06:09.115Z,19.3108
2022-09-07T04:07:09.051Z,19.311
2022-09-07T04:08:11.631Z,19.305
2022-09-07T04:09:08.972Z,19.29
2022-09-07T04:10:08.980Z,19.26
2022-09-07T04:11:12.000Z,19.265
2022-09-07T04:12:08.984Z,19.25
2022-09-07T04:13:09.587Z,19.255
2022-09-07T04:14:11.801Z,19.25
2022-09-07T04:15:09.833Z,19.25
2022-09-07T04:16:12.113Z,19.24
2022-09-07T04:17:08.639Z,19.245
2022-09-07T04:18:08.521Z,19.225
2022-09-07T04:19:08.632Z,19.194
2022-09-07T04:20:09.022Z,19.171
2022-09-07T04:21:08.147Z,19.1208
2022-09-07T04:22:08.862Z,19.1
2022-09-07T04:23:09.084Z,19.1
2022-09-07T04:24:07.580Z,19.1036
2022-09-07T04:25:09.372Z,19.07
2022-09-07T04:26:08.271Z,19.11
2022-09-07T04:27:08.468Z,19.1145
2022-09-07T04:28:11.755Z,19.1207
2022-09-07T04:29:07.715Z,19.145
2022-09-07T04:30:09.022Z,19.141
2022-09-07T04:31:09.268Z,19.164
2022-09-07T04:32:15.998Z,19.146
2022-09-07T04:33:12.053Z,19.164
2022-09-07T04:34:08.152Z,19.155
2022-09-07T04:35:09.042Z,19.166
2022-09-07T04:36:11.637Z,19.1841
2022-09-07T04:37:10.802Z,19.143
2022-09-07T04:38:08.918Z,19.16
2022-09-07T04:39:07.370Z,19.155
2022-09-07T04:40:08.695Z,19.1208
2022-09-07T04:41:08.332Z,19.1258
2022-09-07T04:42:08.840Z,19.12
2022-09-07T04:43:08.751Z,19.1
2022-09-07T04:44:07.228Z,19.105
2022-09-07T04:45:09.094Z,19.105
2022-09-07T04:46:08.923Z,19.095
2022-09-07T04:47:08.229Z,19.08
2022-09-07T04:48:09.134Z,19.075
2022-09-07T04:49:07.457Z,19.08
2022-09-07T04:50:10.915Z,19.08
2022-09-07T04:51:08.287Z,19.085
2022-09-07T04:52:08.841Z,19.065
2022-09-07T04:53:08.655Z,19.08
2022-09-07T04:54:08.860Z,19.1
2022-09-07T04:55:08.826Z,19.09
2022-09-07T04:56:08.406Z,19.1
2022-09-07T04:57:12.219Z,19.115
2022-09-07T04:58:08.482Z,19.115
2022-09-07T04:59:08.724Z,19.1316
2022-09-07T05:00:09.553Z,19.115
2022-09-07T05:01:08.835Z,19.1258
2022-09-07T05:02:09.258Z,19.132
2022-09-07T05:03:09.139Z,19.115
2022-09-07T05:04:07.647Z,19.1258
2022-09-07T05:05:09.595Z,19.115
2022-09-07T05:06:08.724Z,19.1258
2022-09-07T05:07:08.081Z,19.1208
2022-09-07T05:08:09.370Z,19.115
2022-09-07T05:09:09.775Z,19.143
2022-09-07T05:10:08.825Z,19.1208
2022-09-07T05:11:09.134Z,19.1316
2022-09-07T05:12:12.305Z,19.1316
2022-09-07T05:13:09.614Z,19.137
2022-09-07T05:14:08.389Z,19.1316
2022-09-07T05:15:11.288Z,19.149
2022-09-07T05:16:08.495Z,19.155
2022-09-07T05:17:09.935Z,19.171
2022-09-07T05:18:09.320Z,19.165
2022-09-07T05:19:07.653Z,19.172
2022-09-07T05:20:09.079Z,19.172
2022-09-07T05:21:09.255Z,19.166
2022-09-07T05:22:09.033Z,19.143
2022-09-07T05:23:09.433Z,19.1316
2022-09-07T05:24:08.132Z,19.126
2022-09-07T05:25:08.711Z,19.143
2022-09-07T05:26:09.275Z,19.1316
2022-09-07T05:27:09.128Z,19.1316
2022-09-07T05:28:08.453Z,19.115
2022-09-07T05:30:04.397Z,19.115
2022-09-07T05:31:24.250Z,19.11
2022-09-07T05:32:08.822Z,19.09
2022-09-07T05:33:12.404Z,19.095
2022-09-07T05:34:32.747Z,19.095
2022-09-07T05:35:09.180Z,19.11
2022-09-07T05:36:09.110Z,19.115
2022-09-07T05:37:12.777Z,19.11
2022-09-07T05:38:08.920Z,19.12
2022-09-07T05:39:08.891Z,19.115
2022-09-07T05:40:09.241Z,19.126
2022-09-07T05:41:12.194Z,19.1258
2022-09-07T05:42:12.505Z,19.11
2022-09-07T05:43:09.504Z,19.126
2022-09-07T05:45:08.696Z,19.12
2022-09-07T05:46:09.289Z,19.1316
2022-09-07T05:47:09.495Z,19.137
2022-09-07T05:48:12.471Z,19.149
2022-09-07T05:49:10.745Z,19.137
2022-09-07T05:50:09.079Z,19.16
2022-09-07T05:51:09.340Z,19.1783
2022-09-07T05:52:09.300Z,19.183
2022-09-07T05:53:09.016Z,19.2009
2022-09-07T05:54:08.570Z,19.2407
2022-09-07T05:55:28.763Z,19.2554
2022-09-07T05:56:08.785Z,19.2718
2022-09-07T05:57:09.519Z,19.273
2022-09-07T05:58:09.203Z,19.305
2022-09-07T05:59:08.676Z,19.3207
2022-09-07T06:00:09.382Z,19.341
2022-09-07T06:01:09.140Z,19.339
2022-09-07T06:02:09.583Z,19.353
2022-09-07T06:03:10.275Z,19.36
2022-09-07T06:04:10.443Z,19.3791
2022-09-07T06:05:09.482Z,19.362
2022-09-07T06:06:08.929Z,19.395
2022-09-07T06:07:21.483Z,19.415
2022-09-07T06:08:09.770Z,19.395
2022-09-07T06:09:08.844Z,19.415
2022-09-07T06:11:09.437Z,19.45
2022-09-07T06:12:09.159Z,19.455
2022-09-07T06:13:09.765Z,19.46
2022-09-07T06:14:08.155Z,19.485
2022-09-07T06:15:08.958Z,19.505
2022-09-07T06:16:09.606Z,19.53
2022-09-07T06:17:09.149Z,19.53
2022-09-07T06:18:08.516Z,19.55
2022-09-07T06:19:09.717Z,19.575
2022-09-07T06:20:09.256Z,19.605
2022-09-07T06:21:08.650Z,19.649
2022-09-07T06:22:10.039Z,19.6783
2022-09-07T06:23:12.247Z,19.71
2022-09-07T06:24:08.913Z,19.735
2022-09-07T06:25:08.746Z,19.8
2022-09-07T06:26:08.200Z,19.85
2022-09-07T06:27:09.134Z,19.8683
2022-09-07T06:28:08.949Z,19.9
2022-09-07T06:29:09.213Z,19.935
2022-09-07T06:30:11.427Z,19.965
2022-09-07T06:31:12.007Z,20.005
2022-09-07T06:33:08.865Z,20.05
2022-09-07T06:34:11.753Z,20.095
2022-09-07T06:35:09.177Z,20.11
2022-09-07T06:36:08.648Z,20.1316
2022-09-07T06:37:08.465Z,20.2
2022-09-07T06:38:08.890Z,20.235
2022-09-07T06:39:11.519Z,20.275
2022-09-07T06:40:09.153Z,20.3108
2022-09-07T06:42:12.806Z,20.4
2022-09-07T06:43:08.897Z,20.43
2022-09-07T06:44:08.676Z,20.45
2022-09-07T06:45:08.981Z,20.49
2022-09-07T06:47:04.355Z,20.51
2022-09-07T06:47:10.029Z,20.555
2022-09-07T06:48:09.677Z,20.585
2022-09-07T06:49:08.070Z,20.605
2022-09-07T06:50:12.118Z,20.6316
2022-09-07T06:51:12.425Z,20.6891
2022-09-07T06:52:08.880Z,20.715
2022-09-07T06:53:34.751Z,20.715
2022-09-07T06:55:09.552Z,20.75
2022-09-07T06:56:09.121Z,20.775
2022-09-07T06:57:11.778Z,20.795
2022-09-07T06:58:09.299Z,20.8158
2022-09-07T06:59:08.111Z,20.856
2022-09-07T07:00:09.463Z,20.905
2022-09-07T07:01:09.100Z,20.91
2022-09-07T07:02:12.070Z,20.945
2022-09-07T07:03:09.252Z,20.955
2022-09-07T07:04:09.586Z,20.98
2022-09-07T07:05:12.513Z,21.02
2022-09-07T07:06:09.503Z,21.065
2022-09-07T07:07:08.898Z,21.08
2022-09-07T07:08:11.483Z,21.137
2022-09-07T07:09:10.536Z,21.166
2022-09-07T07:10:08.953Z,21.194
2022-09-07T07:11:12.261Z,21.24
2022-09-07T07:12:12.460Z,21.28
2022-09-07T07:13:09.557Z,21.345
2022-09-07T07:14:08.090Z,21.373
2022-09-07T07:15:08.520Z,21.42
2022-09-07T07:16:12.220Z,21.48
2022-09-07T07:17:11.823Z,21.52
2022-09-07T07:18:20.321Z,21.55
2022-09-07T07:19:09.748Z,21.575
2022-09-07T07:20:11.830Z,21.595
2022-09-07T07:21:12.412Z,21.6316
2022-09-07T07:22:29.606Z,21.637
2022-09-07T07:23:08.717Z,21.682
2022-09-07T07:24:09.244Z,21.75
2022-09-07T07:25:11.654Z,21.795
2022-09-07T07:26:09.427Z,21.856
2022-09-07T07:27:09.312Z,21.918
2022-09-07T07:29:08.973Z,22
2022-09-07T07:30:09.099Z,22.045
2022-09-07T07:31:17.391Z,22.092
2022-09-07T07:32:09.012Z,22.121
2022-09-07T07:33:09.478Z,22.166
2022-09-07T07:34:09.279Z,22.204
2022-09-07T07:35:08.706Z,22.245
2022-09-07T07:36:09.125Z,22.3
2022-09-07T07:37:09.017Z,22.339
2022-09-07T07:40:26.436Z,22.435
2022-09-07T07:41:59.033Z,22.475
2022-09-07T07:42:08.766Z,22.515
2022-09-07T07:43:09.713Z,22.585
2022-09-07T07:44:09.477Z,22.65
2022-09-07T07:46:09.667Z,22.75
2022-09-07T07:47:08.883Z,22.79
2022-09-07T07:48:12.523Z,22.8158
2022-09-07T07:49:10.601Z,22.845
2022-09-07T07:50:38.356Z,22.9
2022-09-07T07:51:12.011Z,22.905
2022-09-07T07:54:10.971Z,22.98
2022-09-07T07:56:09.152Z,23.02
2022-09-07T07:57:09.508Z,23.045
2022-09-07T07:58:09.386Z,23.065
2022-09-07T07:59:11.566Z,23.08
2022-09-07T08:00:09.708Z,23.1
2022-09-07T08:01:08.959Z,23.1316
2022-09-07T08:02:09.421Z,23.16
2022-09-07T08:03:09.020Z,23.205
2022-09-07T08:04:09.073Z,23.235
2022-09-07T08:05:08.933Z,23.26
2022-09-07T08:06:12.594Z,23.285
2022-09-07T08:07:10.809Z,23.334
2022-09-07T08:08:09.107Z,23.345
2022-09-07T08:09:09.114Z,23.333
2022-09-07T08:10:08.602Z,23.333
2022-09-07T08:11:09.266Z,23.35
2022-09-07T08:12:08.856Z,23.333
2022-09-07T08:13:09.817Z,23.295
2022-09-07T08:14:08.168Z,23.3108
2022-09-07T08:15:10.033Z,23.295
2022-09-07T08:16:09.032Z,23.285
2022-09-07T08:17:08.884Z,23.27
2022-09-07T08:18:09.405Z,23.265
2022-09-07T08:19:10.434Z,23.29
2022-09-07T08:20:09.160Z,23.311
2022-09-07T08:21:09.410Z,23.3216
2022-09-07T08:22:09.114Z,23.362
2022-09-07T08:23:12.057Z,23.35
2022-09-07T08:24:08.440Z,23.385
2022-09-07T08:25:09.465Z,23.41
2022-09-07T08:26:09.032Z,23.44
2022-09-07T08:27:08.719Z,23.45
2022-09-07T08:28:08.702Z,23.445
2022-09-07T08:29:10.063Z,23.44
2022-09-07T08:30:08.855Z,23.435
2022-09-07T08:31:11.887Z,23.455
2022-09-07T08:32:08.659Z,23.435
2022-09-07T08:33:11.486Z,23.445
2022-09-07T08:34:07.804Z,23.46
2022-09-07T08:35:09.311Z,23.47
2022-09-07T08:36:11.740Z,23.49
2022-09-07T08:37:09.397Z,23.51
2022-09-07T08:38:09.061Z,23.545
2022-09-07T08:39:09.019Z,23.57
2022-09-07T08:40:08.935Z,23.62
2022-09-07T08:41:09.475Z,23.649
2022-09-07T08:42:09.031Z,23.672
2022-09-07T08:43:09.206Z,23.6841
2022-09-07T08:44:08.667Z,23.72
2022-09-07T08:45:09.478Z,23.765
2022-09-07T08:46:09.053Z,23.827
2022-09-07T08:47:09.352Z,23.8791
2022-09-07T08:48:11.749Z,23.93
2022-09-07T08:49:12.657Z,23.975
2022-09-07T08:50:08.873Z,24.025
2022-09-07T08:51:09.778Z,24.085
2022-09-07T08:52:09.293Z,24.1
2022-09-07T08:53:08.912Z,24.151
2022-09-07T08:54:08.193Z,24.168
2022-09-07T08:55:08.809Z,24.2172
2022-09-07T08:56:09.591Z,24.226
2022-09-07T08:57:27.028Z,24.239
2022-09-07T08:58:18.077Z,24.277
2022-09-07T08:59:08.220Z,24.2881
2022-09-07T09:00:09.012Z,24.339
2022-09-07T09:01:32.093Z,24.385
2022-09-07T09:03:28.606Z,24.41
2022-09-07T09:04:15.342Z,24.465
2022-09-07T09:04:21.097Z,24.5138
2022-09-07T09:05:17.376Z,24.5709
2022-09-07T09:06:09.162Z,24.595
2022-09-07T09:07:09.687Z,24.621
2022-09-07T09:08:09.475Z,24.666
2022-09-07T09:09:08.856Z,24.683
2022-09-07T09:10:09.627Z,24.69
2022-09-07T09:11:12.003Z,24.71
2022-09-07T09:12:09.422Z,24.705
2022-09-07T09:13:09.188Z,24.72
2022-09-07T09:14:08.492Z,24.735
2022-09-07T09:15:08.978Z,24.77
2022-09-07T09:16:08.477Z,24.765
2022-09-07T09:17:09.290Z,24.79
2022-09-07T09:18:11.229Z,24.827
2022-09-07T09:19:07.315Z,24.833
2022-09-07T09:20:09.222Z,24.862
2022-09-07T09:21:08.825Z,24.8791
2022-09-07T09:22:09.468Z,24.905
2022-09-07T09:23:09.468Z,24.945
2022-09-07T09:24:10.704Z,24.965
2022-09-07T09:25:09.524Z,24.965
2022-09-07T09:26:08.747Z,24.985
2022-09-07T09:27:08.648Z,24.955
2022-09-07T09:28:09.001Z,24.965
2022-09-07T09:29:07.902Z,24.99
2022-09-07T09:30:09.491Z,25
2022-09-07T09:31:09.012Z,25.01
2022-09-07T09:32:08.550Z,25.015
2022-09-07T09:33:09.521Z,25.02
2022-09-07T09:34:09.930Z,25.065
2022-09-07T09:35:11.803Z,25.06
2022-09-07T09:36:08.893Z,25.065
2022-09-07T09:37:08.599Z,25.09
2022-09-07T09:38:08.951Z,25.116
2022-09-07T09:39:07.960Z,25.175
2022-09-07T09:40:08.559Z,25.214
2022-09-07T09:41:09.259Z,25.275
2022-09-07T09:42:10.869Z,25.334
2022-09-07T09:43:08.698Z,25.395
2022-09-07T09:44:08.912Z,25.45
2022-09-07T09:45:09.738Z,25.51
2022-09-07T09:46:12.451Z,25.55
2022-09-07T09:47:35.561Z,25.585
2022-09-07T09:48:08.788Z,25.683
2022-09-07T09:49:11.076Z,25.71
2022-09-07T09:50:12.089Z,25.745
2022-09-07T09:52:43.604Z,25.861
2022-09-07T09:53:09.113Z,25.915
2022-09-07T09:54:09.194Z,25.975
2022-09-07T09:55:33.255Z,26.005
2022-09-07T09:56:08.992Z,26.085
2022-09-07T09:57:09.672Z,26.1316
2022-09-07T10:00:12.293Z,26.188
2022-09-07T10:01:26.378Z,26.27
2022-09-07T10:03:56.445Z,26.305
2022-09-07T10:04:24.380Z,26.351
2022-09-07T10:05:08.791Z,26.435
2022-09-07T10:06:12.267Z,26.51
2022-09-07T10:07:09.178Z,26.555
2022-09-07T10:08:11.821Z,26.627
2022-09-07T10:09:08.446Z,26.715
2022-09-07T10:10:12.868Z,26.78
2022-09-07T10:11:11.825Z,26.908
2022-09-07T10:12:09.120Z,27
2022-09-07T10:13:09.065Z,27.045
2022-09-07T10:14:08.822Z,27.065
2022-09-07T10:15:12.345Z,27.075
2022-09-07T10:16:12.383Z,27.145
2022-09-07T10:17:09.496Z,27.143
2022-09-07T10:18:09.104Z,27.149
2022-09-07T10:19:08.104Z,27.166
2022-09-07T10:20:09.724Z,27.21
2022-09-07T10:21:09.326Z,27.25
2022-09-07T10:22:08.950Z,27.2827
2022-09-07T10:23:09.392Z,27.326
2022-09-07T10:24:07.962Z,27.3109
2022-09-07T10:25:09.304Z,27.2554
2022-09-07T10:26:09.858Z,27.24
2022-09-07T10:27:08.935Z,27.2227
2022-09-07T10:28:08.775Z,27.22
2022-09-07T10:29:08.931Z,27.2592
2022-09-07T10:30:08.931Z,27.2936
2022-09-07T10:31:14.519Z,27.342
2022-09-07T10:32:12.507Z,27.3909
2022-09-07T10:33:09.587Z,27.41
2022-09-07T10:34:27.544Z,27.475
2022-09-07T10:35:09.198Z,27.5
2022-09-07T10:36:09.626Z,27.595
2022-09-07T10:37:08.902Z,27.61
2022-09-07T10:38:09.346Z,27.638
2022-09-07T10:39:10.245Z,27.666
2022-09-07T10:40:09.433Z,27.671
2022-09-07T10:41:09.322Z,27.6783
2022-09-07T10:42:09.114Z,27.672
2022-09-07T10:43:22.975Z,27.649
2022-09-07T10:44:08.135Z,27.6208
2022-09-07T10:45:09.827Z,27.6208
2022-09-07T10:46:09.102Z,27.688
2022-09-07T10:47:09.212Z,27.75
2022-09-07T10:48:09.607Z,27.775
2022-09-07T10:49:08.387Z,27.811
2022-09-07T10:50:23.959Z,27.895
2022-09-07T10:51:14.110Z,27.935
2022-09-07T10:52:08.894Z,27.93
2022-09-07T10:53:43.447Z,27.97
2022-09-07T10:54:31.396Z,28.04
2022-09-07T10:55:09.362Z,28.07
2022-09-07T10:56:08.704Z,28.08
2022-09-07T10:57:08.857Z,28.095
2022-09-07T10:58:12.528Z,28.06
2022-09-07T10:59:09.278Z,28.137
2022-09-07T11:00:08.732Z,28.08
2022-09-07T11:01:09.208Z,28.06
2022-09-07T11:02:09.052Z,28.045
2022-09-07T11:03:27.604Z,28.015
2022-09-07T11:04:08.561Z,27.94
2022-09-07T11:05:09.294Z,27.9
2022-09-07T11:06:09.702Z,27.905
2022-09-07T11:07:14.924Z,27.889
2022-09-07T11:08:09.170Z,27.89
2022-09-07T11:09:17.594Z,27.89
2022-09-07T11:10:12.497Z,27.91
2022-09-07T11:11:09.299Z,27.905
2022-09-07T11:12:08.725Z,27.915
2022-09-07T11:13:09.585Z,27.94
2022-09-07T11:14:17.421Z,27.96
2022-09-07T11:15:09.100Z,27.955
2022-09-07T11:16:50.624Z,27.91
2022-09-07T11:17:09.337Z,27.89
2022-09-07T11:18:08.677Z,27.862
2022-09-07T11:19:36.371Z,27.823
2022-09-07T11:20:08.901Z,27.775
2022-09-07T11:21:12.480Z,27.73
2022-09-07T11:22:09.027Z,27.775
2022-09-07T11:23:11.307Z,27.75
2022-09-07T11:24:08.160Z,27.735
2022-09-07T11:25:30.996Z,27.72
2022-09-07T11:26:09.431Z,27.695
2022-09-07T11:27:12.448Z,27.66
2022-09-07T11:28:09.070Z,27.627
2022-09-07T11:29:30.260Z,27.575
2022-09-07T11:30:11.897Z,27.575
2022-09-07T11:31:12.395Z,27.5
2022-09-07T11:32:08.450Z,27.45
2022-09-07T11:33:09.475Z,27.42
2022-09-07T11:34:28.884Z,27.405
2022-09-07T11:35:09.188Z,27.395
2022-09-07T11:36:16.414Z,27.362
2022-09-07T11:37:09.054Z,27.344
2022-09-07T11:38:09.266Z,27.3216
2022-09-07T11:39:09.669Z,27.3
2022-09-07T11:40:12.175Z,27.316
2022-09-07T11:41:12.578Z,27.305
2022-09-07T11:43:11.454Z,27.345
2022-09-07T11:44:08.852Z,27.339
2022-09-07T11:45:11.701Z,27.3683
2022-09-07T11:46:09.388Z,27.385
2022-09-07T11:47:12.127Z,27.389
2022-09-07T11:48:12.381Z,27.445
2022-09-07T11:49:08.681Z,27.475
2022-09-07T11:50:11.415Z,27.505
2022-09-07T11:51:12.379Z,27.55
2022-09-07T11:52:08.370Z,27.627
2022-09-07T11:53:11.337Z,27.668
2022-09-07T11:54:07.809Z,27.6772
2022-09-07T11:55:09.204Z,27.722
2022-09-07T11:56:08.464Z,27.7772
2022-09-07T11:57:09.557Z,27.8207
2022-09-07T11:58:09.321Z,27.8227
2022-09-07T11:59:08.920Z,27.78
2022-09-07T12:00:12.138Z,27.7361
2022-09-07T12:01:08.848Z,27.739
2022-09-07T12:02:08.947Z,27.755
2022-09-07T12:03:09.136Z,27.73
2022-09-07T12:04:13.222Z,27.735
2022-09-07T12:05:09.666Z,27.765
2022-09-07T12:06:08.716Z,27.78
2022-09-07T12:07:09.505Z,27.77
2022-09-07T12:08:09.043Z,27.77
2022-09-07T12:09:08.035Z,27.795
2022-09-07T12:10:09.160Z,27.827
2022-09-07T12:11:08.667Z,27.861
2022-09-07T12:12:09.406Z,27.8741
2022-09-07T12:13:08.859Z,27.862
2022-09-07T12:14:10.279Z,27.8683
2022-09-07T12:15:08.391Z,27.905
2022-09-07T12:16:09.530Z,27.995
2022-09-07T12:17:11.823Z,28.132
2022-09-07T12:18:08.821Z,28.171
2022-09-07T12:19:07.725Z,28.205
2022-09-07T12:20:09.305Z,28.1841
2022-09-07T12:21:09.213Z,28.194
2022-09-07T12:22:09.544Z,28.171
2022-09-07T12:23:08.829Z,28.137
2022-09-07T12:24:09.360Z,28.116
2022-09-07T12:25:12.121Z,28.085
2022-09-07T12:26:12.147Z,28.166
2022-09-07T12:27:09.502Z,28.2
2022-09-07T12:28:08.620Z,28.255
2022-09-07T12:29:08.592Z,28.3
2022-09-07T12:30:08.535Z,28.285
2022-09-07T12:31:09.620Z,28.26
2022-09-07T12:33:12.323Z,28.255
2022-09-07T12:34:10.842Z,28.28
2022-09-07T12:35:12.174Z,28.333
2022-09-07T12:36:09.112Z,28.356
2022-09-07T12:37:12.387Z,28.42
2022-09-07T12:38:11.072Z,28.465
2022-09-07T12:39:09.293Z,28.415
2022-09-07T12:40:08.819Z,28.42
2022-09-07T12:41:09.949Z,28.43
2022-09-07T12:42:34.339Z,28.45
2022-09-07T12:43:10.042Z,28.48
2022-09-07T12:44:08.993Z,28.52
2022-09-07T12:45:08.374Z,28.565
2022-09-07T12:46:09.061Z,28.585
2022-09-07T12:47:12.378Z,28.626
2022-09-07T12:48:10.991Z,28.682
2022-09-07T12:49:09.575Z,28.79
2022-09-07T12:50:10.145Z,28.839
2022-09-07T12:51:09.331Z,28.8158
2022-09-07T12:52:15.643Z,28.775
2022-09-07T12:53:08.959Z,28.755